createdAt,value
2023-01-11T05:53:36.751Z,4.40
2023-01-11T05:56:42.495Z,8.88
2023-01-11T05:59:45.188Z,4.93
2023-01-11T06:02:48.352Z,4.32
2023-01-11T06:05:52.407Z,6.82
2023-01-11T06:08:55.231Z,4.68
2023-01-11T06:11:58.202Z,6.18
2023-01-11T06:15:00.933Z,6.53
2023-01-11T06:18:04.135Z,4.72
2023-01-11T06:21:07.813Z,7.70
2023-01-11T06:24:11.006Z,5.35
2023-01-11T06:27:13.670Z,5.57
2023-01-11T06:30:17.148Z,8.45
2023-01-11T06:33:19.978Z,4.60
2023-01-11T06:36:23.037Z,5.97
2023-01-11T06:39:25.895Z,7.50
2023-01-11T06:42:29.025Z,6.65
2023-01-11T06:45:31.824Z,9.15
2023-01-11T06:48:36.172Z,6.80
2023-01-11T06:51:39.269Z,4.37
2023-01-11T06:54:42.238Z,4.47
2023-01-11T06:57:44.953Z,6.43
2023-01-11T07:00:49.880Z,5.30
2023-01-11T07:03:52.724Z,11.52
2023-01-11T07:06:56.366Z,6.95
2023-01-11T07:09:59.045Z,8.32
2023-01-11T07:13:03.900Z,5.65
2023-01-11T07:16:06.906Z,9.10
2023-01-11T07:19:10.020Z,6.07
2023-01-11T07:22:12.670Z,6.07
2023-01-11T07:25:15.705Z,6.80
2023-01-11T07:28:18.412Z,8.05
2023-01-11T07:31:21.613Z,9.02
2023-01-11T07:34:24.829Z,5.68
2023-01-11T07:37:29.580Z,5.40
2023-01-11T07:40:32.444Z,6.75
2023-01-11T07:43:35.327Z,4.82
2023-01-11T07:46:39.435Z,6.90
2023-01-11T07:49:42.952Z,7.15
2023-01-11T07:56:27.837Z,6.90
2023-01-11T07:59:32.092Z,4.00
2023-01-11T08:02:35.549Z,10.02
2023-01-11T08:05:39.248Z,6.32
2023-01-11T08:08:42.472Z,4.78
2023-01-11T08:12:04.368Z,4.12
2023-01-11T08:15:09.261Z,4.53
2023-01-11T08:18:12.849Z,4.15
2023-01-11T08:21:15.905Z,7.53
2023-01-11T08:24:18.957Z,4.03
2023-01-11T08:27:21.806Z,4.55
2023-01-11T08:30:25.680Z,4.47
2023-01-11T08:33:28.291Z,4.72
2023-01-11T08:36:32.504Z,5.05
2023-01-11T08:39:35.278Z,4.03
2023-01-11T08:42:38.459Z,6.18
2023-01-11T08:45:41.078Z,3.67
2023-01-11T08:48:44.248Z,6.00
2023-01-11T08:51:47.149Z,4.97
2023-01-11T08:54:50.194Z,6.80
2023-01-11T08:57:52.871Z,6.35
2023-01-11T09:01:02.638Z,4.22
2023-01-11T09:04:19.209Z,4.40
2023-01-11T09:07:26.592Z,6.75
2023-01-11T09:10:35.015Z,4.12
2023-01-11T09:13:38.003Z,10.68
2023-01-11T09:16:40.697Z,4.35
2023-01-11T09:19:43.952Z,3.33
2023-01-11T09:22:48.170Z,5.43
2023-01-11T09:25:51.374Z,4.57
2023-01-11T09:28:54.094Z,5.40
2023-01-11T09:31:57.146Z,4.50
2023-01-11T09:35:01.168Z,7.18
2023-01-11T09:38:04.349Z,4.85
2023-01-11T09:41:31.936Z,4.05
2023-01-11T09:44:37.765Z,3.95
2023-01-11T09:48:11.735Z,8.95
2023-01-11T09:51:16.527Z,3.87
2023-01-11T09:54:27.105Z,4.85
2023-01-11T16:14:50.939Z,8.45
2023-01-11T16:17:54.556Z,7.55
2023-01-11T16:21:09.604Z,7.78
2023-01-11T16:24:26.858Z,6.43
2023-01-11T16:31:10.626Z,8.55
2023-01-11T16:34:17.083Z,8.82
2023-01-11T17:19:05.751Z,13.77
2023-01-11T17:22:17.677Z,13.45
2023-01-11T17:25:29.544Z,15.02
2023-01-11T17:28:35.654Z,12.98
2023-01-11T17:31:39.935Z,18.20
2023-01-11T17:34:43.931Z,11.60
2023-01-11T17:37:50.284Z,17.02
2023-01-11T17:40:57.779Z,10.93
2023-01-11T17:44:19.480Z,10.38
2023-01-11T17:47:23.511Z,11.55
2023-01-11T17:50:40.021Z,19.15
2023-01-11T17:53:49.097Z,28.33
2023-01-11T17:56:58.544Z,34.42
2023-01-11T18:00:28.808Z,31.92
2023-01-11T18:04:02.041Z,19.12
2023-01-11T18:07:08.038Z,30.73
2023-01-11T18:10:20.916Z,34.53
2023-01-11T18:13:34.734Z,31.83
2023-01-11T18:16:56.065Z,22.13
2023-01-11T18:20:24.466Z,21.67
2023-01-11T18:23:27.648Z,17.12
2023-01-11T18:26:31.980Z,11.43
2023-01-11T18:29:38.110Z,12.98
2023-01-11T18:32:43.338Z,7.55
2023-01-11T18:35:49.049Z,8.15
2023-01-11T18:38:52.046Z,10.57
2023-01-11T18:42:08.293Z,11.48
2023-01-11T18:45:12.026Z,10.45
2023-01-11T18:48:15.791Z,15.88
2023-01-11T18:51:39.544Z,18.42
2023-01-11T18:54:43.147Z,9.45
2023-01-11T18:57:47.479Z,12.35
2023-01-11T19:00:50.798Z,13.62
2023-01-11T19:03:54.242Z,15.73
2023-01-11T19:06:57.435Z,20.37
2023-01-11T19:10:00.120Z,18.87
2023-01-11T19:13:03.551Z,28.42
2023-01-11T19:16:07.219Z,18.23
2023-01-11T19:19:10.409Z,19.23
2023-01-11T19:22:13.707Z,19.40
2023-01-11T19:25:17.099Z,19.27
2023-01-11T19:28:20.120Z,18.70
2023-01-11T19:31:23.222Z,17.17
2023-01-11T19:34:26.291Z,18.40
2023-01-11T19:37:34.191Z,18.45
2023-01-11T19:40:36.980Z,15.88
2023-01-11T19:43:44.907Z,13.05
2023-01-11T19:46:56.756Z,16.58
2023-01-11T19:50:04.369Z,14.90
2023-01-11T19:53:07.935Z,16.20
2023-01-11T19:56:11.231Z,18.92
2023-01-11T19:59:15.633Z,18.73
2023-01-11T20:02:20.438Z,15.18
2023-01-11T20:05:23.451Z,14.05
2023-01-11T20:08:28.876Z,13.02
2023-01-11T20:11:32.060Z,17.83
2023-01-11T20:14:35.656Z,14.65
2023-01-11T20:17:41.383Z,16.00
2023-01-11T20:20:54.686Z,29.63
2023-01-11T20:23:58.080Z,22.02
2023-01-11T20:27:03.531Z,10.15
2023-01-11T20:30:08.676Z,17.62
2023-01-11T20:33:13.636Z,12.50
2023-01-11T20:36:18.008Z,11.10
2023-01-11T20:39:20.859Z,15.20
2023-01-11T20:42:24.178Z,14.40
2023-01-11T20:45:29.217Z,11.45
2023-01-11T20:48:33.135Z,13.00
2023-01-11T20:51:36.533Z,10.52
2023-01-11T20:54:39.528Z,10.27
2023-01-11T20:57:45.491Z,10.85
2023-01-11T21:00:49.399Z,8.93
2023-01-11T21:03:57.518Z,18.87
2023-01-11T21:07:00.542Z,11.90
2023-01-11T21:10:03.419Z,10.30
2023-01-11T21:16:16.278Z,17.48
2023-01-11T21:19:19.327Z,13.93
2023-01-11T21:22:22.221Z,16.60
2023-01-11T21:25:25.197Z,14.68
2023-01-11T21:28:27.983Z,22.67
2023-01-11T21:31:34.184Z,43.13
2023-01-11T21:34:36.876Z,33.78
2023-01-11T21:37:39.839Z,25.52
2023-01-11T21:40:46.693Z,30.27
2023-01-11T21:43:51.731Z,30.60
2023-01-11T21:46:55.688Z,44.00
2023-01-11T21:49:58.747Z,36.83
2023-01-11T21:53:02.122Z,38.35
2023-01-11T21:56:07.624Z,35.75
2023-01-11T21:59:10.416Z,26.83
2023-01-11T22:02:18.249Z,25.77
2023-01-11T22:05:21.196Z,16.37
2023-01-11T22:08:23.866Z,14.52
2023-01-11T22:11:26.923Z,11.50
2023-01-11T22:14:30.561Z,17.00
2023-01-11T22:17:33.763Z,15.55
2023-01-11T22:20:36.491Z,12.43
2023-01-11T22:23:40.475Z,19.45
2023-01-11T22:26:43.264Z,19.85
2023-01-11T22:29:48.026Z,15.82
2023-01-11T22:32:50.745Z,24.27
2023-01-11T22:35:54.793Z,27.37
2023-01-11T22:38:57.871Z,20.55
2023-01-11T22:42:01.592Z,22.75
2023-01-11T22:45:05.461Z,24.42
2023-01-11T22:48:08.472Z,24.80
2023-01-11T22:51:11.950Z,18.92
2023-01-11T22:54:15.039Z,18.62
2023-01-11T22:57:17.739Z,16.85
2023-01-11T23:00:21.621Z,17.42
2023-01-11T23:03:24.452Z,21.10
2023-01-11T23:06:36.283Z,13.48
2023-01-11T23:09:39.013Z,16.92
2023-01-11T23:13:00.451Z,14.30
2023-01-11T23:16:03.352Z,11.85
2023-01-11T23:19:08.563Z,15.30
2023-01-11T23:22:15.596Z,26.37
2023-01-11T23:25:18.625Z,18.10
2023-01-11T23:28:21.287Z,18.70
2023-01-11T23:31:26.242Z,21.62
2023-01-11T23:34:29.135Z,18.60
2023-01-11T23:37:32.137Z,19.37
2023-01-11T23:40:57.846Z,18.50
2023-01-11T23:44:01.272Z,19.98
2023-01-11T23:47:23.742Z,19.62
2023-01-11T23:50:26.871Z,19.58
2023-01-11T23:53:29.659Z,21.35
2023-01-11T23:56:34.004Z,20.83
2023-01-11T23:59:38.394Z,30.33
